sensor_id;sensor_type;location;lat;lon;timestamp;temperature;humidity
48998;DHT22;34807;51.456;7.244;2022-10-16T00:01:08;13.60;96.10
48998;DHT22;34807;51.456;7.244;2022-10-16T00:03:36;13.60;96.10
48998;DHT22;34807;51.456;7.244;2022-10-16T00:06:02;13.60;96.10
48998;DHT22;34807;51.456;7.244;2022-10-16T00:08:28;13.60;96.10
48998;DHT22;34807;51.456;7.244;2022-10-16T00:11:01;13.60;96.10
48998;DHT22;34807;51.456;7.244;2022-10-16T00:13:28;13.60;96.10
48998;DHT22;34807;51.456;7.244;2022-10-16T00:15:54;13.60;96.10
48998;DHT22;34807;51.456;7.244;2022-10-16T00:18:20;13.60;96.10
48998;DHT22;34807;51.456;7.244;2022-10-16T00:20:46;13.60;96.10
48998;DHT22;34807;51.456;7.244;2022-10-16T00:23:11;13.50;96.10
48998;DHT22;34807;51.456;7.244;2022-10-16T00:25:37;13.60;96.10
48998;DHT22;34807;51.456;7.244;2022-10-16T00:28:02;13.50;96.10
48998;DHT22;34807;51.456;7.244;2022-10-16T00:30:28;13.50;96.10
48998;DHT22;34807;51.456;7.244;2022-10-16T00:32:54;13.50;96.10
48998;DHT22;34807;51.456;7.244;2022-10-16T00:35:20;13.50;96.10
48998;DHT22;34807;51.456;7.244;2022-10-16T00:37:45;13.50;96.10
48998;DHT22;34807;51.456;7.244;2022-10-16T00:40:11;13.50;96.10
48998;DHT22;34807;51.456;7.244;2022-10-16T00:42:36;13.50;96.10
48998;DHT22;34807;51.456;7.244;2022-10-16T00:45:02;13.50;96.10
48998;DHT22;34807;51.456;7.244;2022-10-16T00:49:55;13.50;96.10
48998;DHT22;34807;51.456;7.244;2022-10-16T00:52:22;13.50;96.20
48998;DHT22;34807;51.456;7.244;2022-10-16T00:54:48;13.40;96.40
48998;DHT22;34807;51.456;7.244;2022-10-16T00:57:14;13.50;96.10
48998;DHT22;34807;51.456;7.244;2022-10-16T00:59:40;13.50;96.20
48998;DHT22;34807;51.456;7.244;2022-10-16T01:02:07;13.40;96.10
48998;DHT22;34807;51.456;7.244;2022-10-16T01:04:43;13.40;96.10
48998;DHT22;34807;51.456;7.244;2022-10-16T01:07:16;13.50;96.10
48998;DHT22;34807;51.456;7.244;2022-10-16T01:12:27;13.40;96.10
48998;DHT22;34807;51.456;7.244;2022-10-16T01:14:58;13.40;96.10
48998;DHT22;34807;51.456;7.244;2022-10-16T01:17:28;13.40;96.40
48998;DHT22;34807;51.456;7.244;2022-10-16T01:20:14;13.40;96.10
48998;DHT22;34807;51.456;7.244;2022-10-16T01:25:16;13.40;96.10
48998;DHT22;34807;51.456;7.244;2022-10-16T01:27:43;13.40;96.20
48998;DHT22;34807;51.456;7.244;2022-10-16T01:30:16;13.40;96.10
48998;DHT22;34807;51.456;7.244;2022-10-16T01:32:48;13.40;96.10
48998;DHT22;34807;51.456;7.244;2022-10-16T01:35:22;13.40;96.10
48998;DHT22;34807;51.456;7.244;2022-10-16T01:40:17;13.30;96.10
48998;DHT22;34807;51.456;7.244;2022-10-16T01:42:46;13.30;96.10
48998;DHT22;34807;51.456;7.244;2022-10-16T01:45:14;13.30;96.10
48998;DHT22;34807;51.456;7.244;2022-10-16T01:47:40;13.30;96.00
48998;DHT22;34807;51.456;7.244;2022-10-16T01:50:06;13.30;96.10
48998;DHT22;34807;51.456;7.244;2022-10-16T01:52:34;13.30;96.10
48998;DHT22;34807;51.456;7.244;2022-10-16T01:55:00;13.30;96.10
48998;DHT22;34807;51.456;7.244;2022-10-16T01:57:27;13.30;96.10
48998;DHT22;34807;51.456;7.244;2022-10-16T01:59:54;13.30;96.10
48998;DHT22;34807;51.456;7.244;2022-10-16T02:02:21;13.30;96.10
48998;DHT22;34807;51.456;7.244;2022-10-16T02:04:56;13.30;96.10
48998;DHT22;34807;51.456;7.244;2022-10-16T02:07:22;13.20;96.10
48998;DHT22;34807;51.456;7.244;2022-10-16T02:09:48;13.20;96.10
48998;DHT22;34807;51.456;7.244;2022-10-16T02:12:15;13.20;96.10
48998;DHT22;34807;51.456;7.244;2022-10-16T02:14:44;13.30;96.10
48998;DHT22;34807;51.456;7.244;2022-10-16T02:17:13;13.20;96.00
48998;DHT22;34807;51.456;7.244;2022-10-16T02:19:39;13.20;96.00
48998;DHT22;34807;51.456;7.244;2022-10-16T02:22:05;13.20;96.00
48998;DHT22;34807;51.456;7.244;2022-10-16T02:24:38;13.20;96.00
48998;DHT22;34807;51.456;7.244;2022-10-16T02:27:24;13.20;96.00
48998;DHT22;34807;51.456;7.244;2022-10-16T02:29:52;13.20;96.00
48998;DHT22;34807;51.456;7.244;2022-10-16T02:32:23;13.20;96.00
48998;DHT22;34807;51.456;7.244;2022-10-16T02:34:49;13.20;96.00
48998;DHT22;34807;51.456;7.244;2022-10-16T02:37:16;13.20;96.00
48998;DHT22;34807;51.456;7.244;2022-10-16T02:39:43;13.20;96.00
48998;DHT22;34807;51.456;7.244;2022-10-16T02:42:15;13.20;96.00
48998;DHT22;34807;51.456;7.244;2022-10-16T02:44:42;13.20;96.00
48998;DHT22;34807;51.456;7.244;2022-10-16T02:47:08;13.20;96.10
48998;DHT22;34807;51.456;7.244;2022-10-16T02:49:33;13.20;96.00
48998;DHT22;34807;51.456;7.244;2022-10-16T02:51:59;13.20;96.10
48998;DHT22;34807;51.456;7.244;2022-10-16T02:54:24;13.20;96.00
48998;DHT22;34807;51.456;7.244;2022-10-16T02:56:50;13.20;96.00
48998;DHT22;34807;51.456;7.244;2022-10-16T02:59:15;13.20;96.00
48998;DHT22;34807;51.456;7.244;2022-10-16T03:01:41;13.20;96.00
48998;DHT22;34807;51.456;7.244;2022-10-16T03:04:06;13.20;95.90
48998;DHT22;34807;51.456;7.244;2022-10-16T03:06:32;13.20;96.00
48998;DHT22;34807;51.456;7.244;2022-10-16T03:08:57;13.20;96.00
48998;DHT22;34807;51.456;7.244;2022-10-16T03:11:22;13.20;96.00
48998;DHT22;34807;51.456;7.244;2022-10-16T03:13:48;13.20;96.00
48998;DHT22;34807;51.456;7.244;2022-10-16T03:16:13;13.20;96.00
48998;DHT22;34807;51.456;7.244;2022-10-16T03:18:39;13.20;96.00
48998;DHT22;34807;51.456;7.244;2022-10-16T03:21:04;13.20;96.00
48998;DHT22;34807;51.456;7.244;2022-10-16T03:23:30;13.20;96.00
48998;DHT22;34807;51.456;7.244;2022-10-16T03:25:55;13.20;96.00
48998;DHT22;34807;51.456;7.244;2022-10-16T03:28:21;13.20;96.00
48998;DHT22;34807;51.456;7.244;2022-10-16T03:30:46;13.20;96.00
48998;DHT22;34807;51.456;7.244;2022-10-16T03:33:12;13.10;95.90
48998;DHT22;34807;51.456;7.244;2022-10-16T03:35:37;13.20;96.00
48998;DHT22;34807;51.456;7.244;2022-10-16T03:38:03;13.20;96.00
48998;DHT22;34807;51.456;7.244;2022-10-16T03:40:28;13.20;96.00
48998;DHT22;34807;51.456;7.244;2022-10-16T03:42:54;13.20;96.00
48998;DHT22;34807;51.456;7.244;2022-10-16T03:45:22;13.10;95.90
48998;DHT22;34807;51.456;7.244;2022-10-16T03:47:48;13.20;96.00
48998;DHT22;34807;51.456;7.244;2022-10-16T03:50:13;13.20;95.90
48998;DHT22;34807;51.456;7.244;2022-10-16T03:52:39;13.10;95.90
48998;DHT22;34807;51.456;7.244;2022-10-16T03:55:04;13.20;96.00
48998;DHT22;34807;51.456;7.244;2022-10-16T03:57:30;13.10;96.00
48998;DHT22;34807;51.456;7.244;2022-10-16T03:59:55;13.20;96.00
48998;DHT22;34807;51.456;7.244;2022-10-16T04:02:21;13.10;96.00
48998;DHT22;34807;51.456;7.244;2022-10-16T04:04:46;13.10;96.00
48998;DHT22;34807;51.456;7.244;2022-10-16T04:07:12;13.20;96.00
48998;DHT22;34807;51.456;7.244;2022-10-16T04:09:37;13.10;96.00
48998;DHT22;34807;51.456;7.244;2022-10-16T04:12:03;13.10;96.00
48998;DHT22;34807;51.456;7.244;2022-10-16T04:14:28;13.10;96.00
48998;DHT22;34807;51.456;7.244;2022-10-16T04:16:54;13.10;96.00
48998;DHT22;34807;51.456;7.244;2022-10-16T04:19:19;13.10;96.10
48998;DHT22;34807;51.456;7.244;2022-10-16T04:21:44;13.10;96.00
48998;DHT22;34807;51.456;7.244;2022-10-16T04:24:10;13.10;96.00
48998;DHT22;34807;51.456;7.244;2022-10-16T04:26:36;13.10;96.00
48998;DHT22;34807;51.456;7.244;2022-10-16T04:29:02;13.10;96.00
48998;DHT22;34807;51.456;7.244;2022-10-16T04:31:27;13.10;96.00
48998;DHT22;34807;51.456;7.244;2022-10-16T04:33:53;13.00;95.90
48998;DHT22;34807;51.456;7.244;2022-10-16T04:36:18;13.10;96.00
48998;DHT22;34807;51.456;7.244;2022-10-16T04:38:44;13.00;96.00
48998;DHT22;34807;51.456;7.244;2022-10-16T04:41:09;13.00;96.00
48998;DHT22;34807;51.456;7.244;2022-10-16T04:43:35;13.00;96.00
48998;DHT22;34807;51.456;7.244;2022-10-16T04:46:00;13.10;96.00
48998;DHT22;34807;51.456;7.244;2022-10-16T04:48:27;13.00;96.00
48998;DHT22;34807;51.456;7.244;2022-10-16T04:50:52;13.00;95.90
48998;DHT22;34807;51.456;7.244;2022-10-16T04:53:18;13.00;96.00
48998;DHT22;34807;51.456;7.244;2022-10-16T04:55:43;13.00;95.90
48998;DHT22;34807;51.456;7.244;2022-10-16T04:58:09;13.00;95.90
48998;DHT22;34807;51.456;7.244;2022-10-16T05:00:34;13.00;95.90
48998;DHT22;34807;51.456;7.244;2022-10-16T05:03:00;13.00;95.90
48998;DHT22;34807;51.456;7.244;2022-10-16T05:05:26;13.00;95.90
48998;DHT22;34807;51.456;7.244;2022-10-16T05:07:51;13.00;95.90
48998;DHT22;34807;51.456;7.244;2022-10-16T05:10:17;13.00;95.90
48998;DHT22;34807;51.456;7.244;2022-10-16T05:12:43;13.00;95.90
48998;DHT22;34807;51.456;7.244;2022-10-16T05:15:08;13.00;95.90
48998;DHT22;34807;51.456;7.244;2022-10-16T05:17:34;13.00;95.90
48998;DHT22;34807;51.456;7.244;2022-10-16T05:19:59;13.00;95.90
48998;DHT22;34807;51.456;7.244;2022-10-16T05:22:25;13.00;95.80
48998;DHT22;34807;51.456;7.244;2022-10-16T05:24:50;13.00;95.80
48998;DHT22;34807;51.456;7.244;2022-10-16T05:27:16;13.00;95.80
48998;DHT22;34807;51.456;7.244;2022-10-16T05:29:47;13.00;95.90
48998;DHT22;34807;51.456;7.244;2022-10-16T05:32:14;13.00;96.00
48998;DHT22;34807;51.456;7.244;2022-10-16T05:34:39;13.00;95.90
48998;DHT22;34807;51.456;7.244;2022-10-16T05:37:05;13.00;95.90
48998;DHT22;34807;51.456;7.244;2022-10-16T05:39:30;13.00;95.80
48998;DHT22;34807;51.456;7.244;2022-10-16T05:41:56;13.00;95.80
48998;DHT22;34807;51.456;7.244;2022-10-16T05:44:21;13.00;95.90
48998;DHT22;34807;51.456;7.244;2022-10-16T05:46:47;12.90;95.80
48998;DHT22;34807;51.456;7.244;2022-10-16T05:49:12;13.00;95.80
48998;DHT22;34807;51.456;7.244;2022-10-16T05:51:38;13.00;95.80
48998;DHT22;34807;51.456;7.244;2022-10-16T05:54:03;13.00;95.90
48998;DHT22;34807;51.456;7.244;2022-10-16T05:56:29;13.00;95.90
48998;DHT22;34807;51.456;7.244;2022-10-16T05:58:54;12.90;95.80
48998;DHT22;34807;51.456;7.244;2022-10-16T06:01:20;12.90;95.90
48998;DHT22;34807;51.456;7.244;2022-10-16T06:03:49;12.90;95.80
48998;DHT22;34807;51.456;7.244;2022-10-16T06:06:16;13.00;95.80
48998;DHT22;34807;51.456;7.244;2022-10-16T06:08:42;13.00;95.90
48998;DHT22;34807;51.456;7.244;2022-10-16T06:11:09;12.90;95.90
48998;DHT22;34807;51.456;7.244;2022-10-16T06:13:35;12.90;95.80
48998;DHT22;34807;51.456;7.244;2022-10-16T06:16:01;12.90;95.90
48998;DHT22;34807;51.456;7.244;2022-10-16T06:18:27;12.90;95.80
48998;DHT22;34807;51.456;7.244;2022-10-16T06:20:53;12.90;95.80
48998;DHT22;34807;51.456;7.244;2022-10-16T06:23:19;12.90;95.80
48998;DHT22;34807;51.456;7.244;2022-10-16T06:25:44;12.90;95.90
48998;DHT22;34807;51.456;7.244;2022-10-16T06:28:10;12.90;95.90
48998;DHT22;34807;51.456;7.244;2022-10-16T06:30:35;12.90;95.80
48998;DHT22;34807;51.456;7.244;2022-10-16T06:33:01;12.90;95.90
48998;DHT22;34807;51.456;7.244;2022-10-16T06:35:26;12.90;95.80
48998;DHT22;34807;51.456;7.244;2022-10-16T06:37:55;12.90;95.80
48998;DHT22;34807;51.456;7.244;2022-10-16T06:40:20;12.90;95.90
48998;DHT22;34807;51.456;7.244;2022-10-16T06:42:46;12.90;95.80
48998;DHT22;34807;51.456;7.244;2022-10-16T06:45:11;12.90;95.80
48998;DHT22;34807;51.456;7.244;2022-10-16T06:47:37;12.90;95.80
48998;DHT22;34807;51.456;7.244;2022-10-16T06:50:03;13.00;95.80
48998;DHT22;34807;51.456;7.244;2022-10-16T06:52:29;13.00;95.90
48998;DHT22;34807;51.456;7.244;2022-10-16T06:54:54;13.00;95.80
48998;DHT22;34807;51.456;7.244;2022-10-16T06:57:20;13.00;95.80
48998;DHT22;34807;51.456;7.244;2022-10-16T06:59:45;13.00;95.80
48998;DHT22;34807;51.456;7.244;2022-10-16T07:02:11;13.00;95.80
48998;DHT22;34807;51.456;7.244;2022-10-16T07:04:36;13.00;95.80
48998;DHT22;34807;51.456;7.244;2022-10-16T07:07:02;13.00;95.90
48998;DHT22;34807;51.456;7.244;2022-10-16T07:09:27;13.00;95.90
48998;DHT22;34807;51.456;7.244;2022-10-16T07:11:53;13.00;95.80
48998;DHT22;34807;51.456;7.244;2022-10-16T07:14:19;13.00;95.70
48998;DHT22;34807;51.456;7.244;2022-10-16T07:16:45;13.00;95.70
48998;DHT22;34807;51.456;7.244;2022-10-16T07:19:10;13.00;95.70
48998;DHT22;34807;51.456;7.244;2022-10-16T07:21:37;13.00;95.70
48998;DHT22;34807;51.456;7.244;2022-10-16T07:24:04;13.00;95.70
48998;DHT22;34807;51.456;7.244;2022-10-16T07:26:30;13.00;95.70
48998;DHT22;34807;51.456;7.244;2022-10-16T07:28:56;13.00;95.70
48998;DHT22;34807;51.456;7.244;2022-10-16T07:31:22;13.00;95.80
48998;DHT22;34807;51.456;7.244;2022-10-16T07:33:48;13.00;95.70
48998;DHT22;34807;51.456;7.244;2022-10-16T07:36:14;13.00;95.80
48998;DHT22;34807;51.456;7.244;2022-10-16T07:38:40;13.00;95.70
48998;DHT22;34807;51.456;7.244;2022-10-16T07:41:08;13.00;95.70
48998;DHT22;34807;51.456;7.244;2022-10-16T07:43:34;13.00;95.80
48998;DHT22;34807;51.456;7.244;2022-10-16T07:45:59;13.00;95.70
48998;DHT22;34807;51.456;7.244;2022-10-16T07:48:30;13.00;95.70
48998;DHT22;34807;51.456;7.244;2022-10-16T07:50:57;13.00;95.70
48998;DHT22;34807;51.456;7.244;2022-10-16T07:53:22;13.10;95.70
48998;DHT22;34807;51.456;7.244;2022-10-16T07:55:48;13.10;95.70
48998;DHT22;34807;51.456;7.244;2022-10-16T07:58:13;13.00;95.70
48998;DHT22;34807;51.456;7.244;2022-10-16T08:00:39;13.10;95.80
48998;DHT22;34807;51.456;7.244;2022-10-16T08:03:04;13.00;95.70
48998;DHT22;34807;51.456;7.244;2022-10-16T08:05:30;13.10;95.70
48998;DHT22;34807;51.456;7.244;2022-10-16T08:07:56;13.10;95.70
48998;DHT22;34807;51.456;7.244;2022-10-16T08:10:23;13.10;95.70
48998;DHT22;34807;51.456;7.244;2022-10-16T08:12:49;13.10;95.60
48998;DHT22;34807;51.456;7.244;2022-10-16T08:15:14;13.10;95.60
48998;DHT22;34807;51.456;7.244;2022-10-16T08:17:40;13.10;95.60
48998;DHT22;34807;51.456;7.244;2022-10-16T08:20:05;13.20;95.70
48998;DHT22;34807;51.456;7.244;2022-10-16T08:22:31;13.20;95.60
48998;DHT22;34807;51.456;7.244;2022-10-16T08:24:57;13.20;95.60
48998;DHT22;34807;51.456;7.244;2022-10-16T08:27:22;13.20;95.70
48998;DHT22;34807;51.456;7.244;2022-10-16T08:29:51;13.20;95.50
48998;DHT22;34807;51.456;7.244;2022-10-16T08:32:16;13.30;95.70
48998;DHT22;34807;51.456;7.244;2022-10-16T08:34:42;13.30;95.50
48998;DHT22;34807;51.456;7.244;2022-10-16T08:37:07;13.30;95.50
48998;DHT22;34807;51.456;7.244;2022-10-16T08:39:36;13.30;95.50
48998;DHT22;34807;51.456;7.244;2022-10-16T08:42:15;13.30;95.70
48998;DHT22;34807;51.456;7.244;2022-10-16T08:47:19;13.40;95.70
48998;DHT22;34807;51.456;7.244;2022-10-16T08:49:54;13.40;95.60
48998;DHT22;34807;51.456;7.244;2022-10-16T08:52:20;13.50;95.70
48998;DHT22;34807;51.456;7.244;2022-10-16T08:54:47;13.50;95.60
48998;DHT22;34807;51.456;7.244;2022-10-16T08:57:16;13.50;95.50
48998;DHT22;34807;51.456;7.244;2022-10-16T08:59:42;13.60;95.50
48998;DHT22;34807;51.456;7.244;2022-10-16T09:02:28;13.60;95.40
48998;DHT22;34807;51.456;7.244;2022-10-16T09:05:02;13.60;95.40
48998;DHT22;34807;51.456;7.244;2022-10-16T09:13:00;13.70;95.50
48998;DHT22;34807;51.456;7.244;2022-10-16T09:23:00;13.80;95.30
48998;DHT22;34807;51.456;7.244;2022-10-16T09:25:29;13.80;95.30
48998;DHT22;34807;51.456;7.244;2022-10-16T09:27:55;13.80;95.40
48998;DHT22;34807;51.456;7.244;2022-10-16T09:30:21;13.90;95.50
48998;DHT22;34807;51.456;7.244;2022-10-16T09:32:48;13.90;95.40
48998;DHT22;34807;51.456;7.244;2022-10-16T09:35:22;13.90;95.40
48998;DHT22;34807;51.456;7.244;2022-10-16T09:37:50;13.90;95.40
48998;DHT22;34807;51.456;7.244;2022-10-16T09:42:56;13.90;95.40
48998;DHT22;34807;51.456;7.244;2022-10-16T09:45:23;14.00;95.30
48998;DHT22;34807;51.456;7.244;2022-10-16T09:47:49;14.00;95.20
48998;DHT22;34807;51.456;7.244;2022-10-16T09:50:24;14.10;95.20
48998;DHT22;34807;51.456;7.244;2022-10-16T09:53:02;14.10;95.10
48998;DHT22;34807;51.456;7.244;2022-10-16T09:55:28;14.10;95.20
48998;DHT22;34807;51.456;7.244;2022-10-16T09:57:54;14.10;95.10
48998;DHT22;34807;51.456;7.244;2022-10-16T10:00:20;14.10;95.10
48998;DHT22;34807;51.456;7.244;2022-10-16T10:02:45;14.20;95.10
48998;DHT22;34807;51.456;7.244;2022-10-16T10:05:18;14.30;95.10
48998;DHT22;34807;51.456;7.244;2022-10-16T10:07:46;14.30;94.80
48998;DHT22;34807;51.456;7.244;2022-10-16T10:10:21;14.30;94.90
48998;DHT22;34807;51.456;7.244;2022-10-16T10:12:47;14.40;94.90
48998;DHT22;34807;51.456;7.244;2022-10-16T10:15:13;14.40;94.80
48998;DHT22;34807;51.456;7.244;2022-10-16T10:17:47;14.40;94.80
48998;DHT22;34807;51.456;7.244;2022-10-16T10:20:21;14.40;94.80
48998;DHT22;34807;51.456;7.244;2022-10-16T10:22:47;14.50;94.70
48998;DHT22;34807;51.456;7.244;2022-10-16T10:40:51;14.70;94.40
48998;DHT22;34807;51.456;7.244;2022-10-16T10:45:44;14.80;94.50
48998;DHT22;34807;51.456;7.244;2022-10-16T10:48:14;14.80;94.40
48998;DHT22;34807;51.456;7.244;2022-10-16T10:50:59;14.80;94.60
48998;DHT22;34807;51.456;7.244;2022-10-16T11:01:16;14.90;94.50
48998;DHT22;34807;51.456;7.244;2022-10-16T11:08:45;15.00;94.30
48998;DHT22;34807;51.456;7.244;2022-10-16T11:11:17;15.10;94.30
48998;DHT22;34807;51.456;7.244;2022-10-16T11:13:51;15.10;94.30
48998;DHT22;34807;51.456;7.244;2022-10-16T11:16:26;15.10;94.30
48998;DHT22;34807;51.456;7.244;2022-10-16T11:21:21;15.20;94.30
48998;DHT22;34807;51.456;7.244;2022-10-16T11:26:17;15.30;94.30
48998;DHT22;34807;51.456;7.244;2022-10-16T11:28:48;15.40;94.50
48998;DHT22;34807;51.456;7.244;2022-10-16T11:36:42;15.50;94.30
48998;DHT22;34807;51.456;7.244;2022-10-16T11:39:20;15.50;94.40
48998;DHT22;34807;51.456;7.244;2022-10-16T11:41:47;15.50;94.40
48998;DHT22;34807;51.456;7.244;2022-10-16T11:47:05;15.50;94.50
48998;DHT22;34807;51.456;7.244;2022-10-16T11:49:33;15.60;94.50
48998;DHT22;34807;51.456;7.244;2022-10-16T11:52:13;15.60;94.50
48998;DHT22;34807;51.456;7.244;2022-10-16T11:57:33;15.70;94.60
48998;DHT22;34807;51.456;7.244;2022-10-16T12:00:08;15.80;94.40
48998;DHT22;34807;51.456;7.244;2022-10-16T12:05:24;15.90;94.40
48998;DHT22;34807;51.456;7.244;2022-10-16T12:10:35;16.00;94.30
48998;DHT22;34807;51.456;7.244;2022-10-16T12:13:03;16.10;94.40
48998;DHT22;34807;51.456;7.244;2022-10-16T12:15:30;16.20;94.40
48998;DHT22;34807;51.456;7.244;2022-10-16T12:17:55;16.20;94.10
48998;DHT22;34807;51.456;7.244;2022-10-16T12:20:28;16.30;94.30
48998;DHT22;34807;51.456;7.244;2022-10-16T12:22:59;16.30;94.30
48998;DHT22;34807;51.456;7.244;2022-10-16T12:25:30;16.40;94.40
48998;DHT22;34807;51.456;7.244;2022-10-16T12:28:06;16.40;94.30
48998;DHT22;34807;51.456;7.244;2022-10-16T12:30:33;16.40;94.40
48998;DHT22;34807;51.456;7.244;2022-10-16T12:33:00;16.30;94.50
48998;DHT22;34807;51.456;7.244;2022-10-16T12:35:28;16.40;94.70
48998;DHT22;34807;51.456;7.244;2022-10-16T12:37:54;16.40;94.50
48998;DHT22;34807;51.456;7.244;2022-10-16T12:40:30;16.60;94.50
48998;DHT22;34807;51.456;7.244;2022-10-16T12:42:56;16.60;94.70
48998;DHT22;34807;51.456;7.244;2022-10-16T12:45:31;16.60;94.80
48998;DHT22;34807;51.456;7.244;2022-10-16T12:47:58;16.70;94.80
48998;DHT22;34807;51.456;7.244;2022-10-16T12:52:52;16.70;94.80
48998;DHT22;34807;51.456;7.244;2022-10-16T12:55:19;16.80;94.80
48998;DHT22;34807;51.456;7.244;2022-10-16T13:00:32;16.80;94.10
48998;DHT22;34807;51.456;7.244;2022-10-16T13:07:55;16.80;94.30
48998;DHT22;34807;51.456;7.244;2022-10-16T13:10:32;16.80;94.30
48998;DHT22;34807;51.456;7.244;2022-10-16T13:13:35;16.80;94.40
48998;DHT22;34807;51.456;7.244;2022-10-16T13:18:29;16.80;94.70
48998;DHT22;34807;51.456;7.244;2022-10-16T13:21:03;16.90;94.80
48998;DHT22;34807;51.456;7.244;2022-10-16T13:23:37;16.80;95.00
48998;DHT22;34807;51.456;7.244;2022-10-16T13:26:15;16.80;95.20
48998;DHT22;34807;51.456;7.244;2022-10-16T13:28:42;16.90;95.10
48998;DHT22;34807;51.456;7.244;2022-10-16T13:31:13;16.90;94.90
48998;DHT22;34807;51.456;7.244;2022-10-16T13:33:41;16.90;95.00
48998;DHT22;34807;51.456;7.244;2022-10-16T13:36:17;16.90;95.10
48998;DHT22;34807;51.456;7.244;2022-10-16T13:38:43;16.80;94.90
48998;DHT22;34807;51.456;7.244;2022-10-16T13:41:16;16.80;95.30
48998;DHT22;34807;51.456;7.244;2022-10-16T13:43:47;16.80;95.30
48998;DHT22;34807;51.456;7.244;2022-10-16T13:46:16;16.80;95.30
48998;DHT22;34807;51.456;7.244;2022-10-16T13:48:42;16.80;95.30
48998;DHT22;34807;51.456;7.244;2022-10-16T13:53:36;16.80;95.30
48998;DHT22;34807;51.456;7.244;2022-10-16T13:56:03;16.90;95.30
48998;DHT22;34807;51.456;7.244;2022-10-16T13:58:28;16.90;95.20
48998;DHT22;34807;51.456;7.244;2022-10-16T14:00:55;16.90;95.30
48998;DHT22;34807;51.456;7.244;2022-10-16T14:03:21;16.90;95.30
48998;DHT22;34807;51.456;7.244;2022-10-16T14:05:48;16.90;95.00
48998;DHT22;34807;51.456;7.244;2022-10-16T14:08:14;16.90;94.90
48998;DHT22;34807;51.456;7.244;2022-10-16T14:10:39;16.90;94.70
48998;DHT22;34807;51.456;7.244;2022-10-16T14:13:05;17.00;94.70
48998;DHT22;34807;51.456;7.244;2022-10-16T14:15:32;17.00;94.30
48998;DHT22;34807;51.456;7.244;2022-10-16T14:17:58;17.00;94.40
48998;DHT22;34807;51.456;7.244;2022-10-16T14:20:28;17.00;94.10
48998;DHT22;34807;51.456;7.244;2022-10-16T14:22:58;17.00;94.10
48998;DHT22;34807;51.456;7.244;2022-10-16T14:25:25;17.00;94.00
48998;DHT22;34807;51.456;7.244;2022-10-16T14:30:23;17.00;93.50
48998;DHT22;34807;51.456;7.244;2022-10-16T14:35:24;17.00;93.60
48998;DHT22;34807;51.456;7.244;2022-10-16T14:37:51;17.00;93.90
48998;DHT22;34807;51.456;7.244;2022-10-16T14:40:17;17.00;94.10
48998;DHT22;34807;51.456;7.244;2022-10-16T14:42:43;17.00;94.20
48998;DHT22;34807;51.456;7.244;2022-10-16T14:45:09;17.00;94.30
48998;DHT22;34807;51.456;7.244;2022-10-16T14:47:35;16.90;94.30
48998;DHT22;34807;51.456;7.244;2022-10-16T14:50:02;16.90;94.30
48998;DHT22;34807;51.456;7.244;2022-10-16T14:52:28;16.90;94.40
48998;DHT22;34807;51.456;7.244;2022-10-16T14:54:56;16.80;94.50
48998;DHT22;34807;51.456;7.244;2022-10-16T14:57:26;16.90;94.50
48998;DHT22;34807;51.456;7.244;2022-10-16T14:59:53;16.80;94.50
48998;DHT22;34807;51.456;7.244;2022-10-16T15:02:31;16.90;94.40
48998;DHT22;34807;51.456;7.244;2022-10-16T15:04:58;16.90;94.40
48998;DHT22;34807;51.456;7.244;2022-10-16T15:07:27;16.80;94.30
48998;DHT22;34807;51.456;7.244;2022-10-16T15:09:53;16.80;94.40
48998;DHT22;34807;51.456;7.244;2022-10-16T15:12:18;16.80;94.40
48998;DHT22;34807;51.456;7.244;2022-10-16T15:14:44;16.80;94.50
48998;DHT22;34807;51.456;7.244;2022-10-16T15:17:10;16.80;94.50
48998;DHT22;34807;51.456;7.244;2022-10-16T15:19:36;16.70;94.60
48998;DHT22;34807;51.456;7.244;2022-10-16T15:22:01;16.70;94.60
48998;DHT22;34807;51.456;7.244;2022-10-16T15:24:26;16.70;94.60
48998;DHT22;34807;51.456;7.244;2022-10-16T15:26:52;16.70;94.70
48998;DHT22;34807;51.456;7.244;2022-10-16T15:29:17;16.60;94.70
48998;DHT22;34807;51.456;7.244;2022-10-16T15:31:43;16.60;94.60
48998;DHT22;34807;51.456;7.244;2022-10-16T15:34:09;16.60;94.50
48998;DHT22;34807;51.456;7.244;2022-10-16T15:36:35;16.60;94.50
48998;DHT22;34807;51.456;7.244;2022-10-16T15:39:20;16.50;94.60
48998;DHT22;34807;51.456;7.244;2022-10-16T15:41:46;16.50;94.60
48998;DHT22;34807;51.456;7.244;2022-10-16T15:44:19;16.50;94.70
48998;DHT22;34807;51.456;7.244;2022-10-16T15:46:45;16.40;94.60
48998;DHT22;34807;51.456;7.244;2022-10-16T15:49:11;16.40;94.60
48998;DHT22;34807;51.456;7.244;2022-10-16T15:51:40;16.40;94.70
48998;DHT22;34807;51.456;7.244;2022-10-16T15:54:06;16.40;94.70
48998;DHT22;34807;51.456;7.244;2022-10-16T15:56:32;16.40;94.80
48998;DHT22;34807;51.456;7.244;2022-10-16T15:59:01;16.30;94.80
48998;DHT22;34807;51.456;7.244;2022-10-16T16:01:27;16.30;94.70
48998;DHT22;34807;51.456;7.244;2022-10-16T16:03:54;16.30;94.70
48998;DHT22;34807;51.456;7.244;2022-10-16T16:06:20;16.30;94.80
48998;DHT22;34807;51.456;7.244;2022-10-16T16:08:45;16.20;94.80
48998;DHT22;34807;51.456;7.244;2022-10-16T16:11:11;16.20;94.80
48998;DHT22;34807;51.456;7.244;2022-10-16T16:13:38;16.20;94.80
48998;DHT22;34807;51.456;7.244;2022-10-16T16:16:05;16.20;94.80
48998;DHT22;34807;51.456;7.244;2022-10-16T16:18:31;16.10;94.80
48998;DHT22;34807;51.456;7.244;2022-10-16T16:20:56;16.10;94.80
48998;DHT22;34807;51.456;7.244;2022-10-16T16:23:22;16.10;94.80
48998;DHT22;34807;51.456;7.244;2022-10-16T16:26:07;16.10;94.80
48998;DHT22;34807;51.456;7.244;2022-10-16T16:28:35;16.10;94.80
48998;DHT22;34807;51.456;7.244;2022-10-16T16:31:01;16.00;94.80
48998;DHT22;34807;51.456;7.244;2022-10-16T16:33:26;16.00;94.80
48998;DHT22;34807;51.456;7.244;2022-10-16T16:35:55;16.00;94.80
48998;DHT22;34807;51.456;7.244;2022-10-16T16:38:21;16.00;94.80
48998;DHT22;34807;51.456;7.244;2022-10-16T16:40:46;15.90;94.80
48998;DHT22;34807;51.456;7.244;2022-10-16T16:43:12;15.90;94.80
48998;DHT22;34807;51.456;7.244;2022-10-16T16:45:37;15.90;94.80
48998;DHT22;34807;51.456;7.244;2022-10-16T16:48:03;15.90;94.80
48998;DHT22;34807;51.456;7.244;2022-10-16T16:50:28;15.80;94.80
48998;DHT22;34807;51.456;7.244;2022-10-16T16:52:54;15.80;94.80
48998;DHT22;34807;51.456;7.244;2022-10-16T16:55:19;15.80;94.90
48998;DHT22;34807;51.456;7.244;2022-10-16T16:57:47;15.80;94.90
48998;DHT22;34807;51.456;7.244;2022-10-16T17:00:13;15.70;94.90
48998;DHT22;34807;51.456;7.244;2022-10-16T17:02:38;15.70;94.90
48998;DHT22;34807;51.456;7.244;2022-10-16T17:05:08;15.70;94.90
48998;DHT22;34807;51.456;7.244;2022-10-16T17:07:34;15.70;94.90
48998;DHT22;34807;51.456;7.244;2022-10-16T17:10:00;15.70;94.90
48998;DHT22;34807;51.456;7.244;2022-10-16T17:12:25;15.60;94.90